Time;durP1;ratioP1;P1;durP2;ratioP2;P2;SDS_P1;SDS_P2;PMS_P1;PMS_P2;Temp;Humidity;BMP_temperature;BMP_pressure;BME280_temperature;BME280_humidity;BME280_pressure;Samples;Min_cycle;Max_cycle;Signal;HPM_P1;HPM_P2
2021/09/28 00:02:08;;;;;;;;;;;10.70;99.90;;;;;;5115289;28;19934;-86
2021/09/28 00:04:36;;;;;;;;;;;10.70;99.90;;;;;;5115433;28;19923;-86
2021/09/28 00:07:06;;;;;;;;;;;10.70;99.90;;;;;;5115558;28;19934;-85
2021/09/28 00:09:34;;;;;;;;;;;10.70;99.90;;;;;;5115549;28;19932;-85
2021/09/28 00:12:01;;;;;;;;;;;10.70;99.90;;;;;;5115166;28;19935;-86
2021/09/28 00:14:30;;;;;;;;;;;10.60;99.90;;;;;;5115387;28;19924;-86
2021/09/28 00:16:56;;;;;;;;;;;10.60;99.90;;;;;;5115258;28;19934;-86
2021/09/28 00:19:23;;;;;;;;;;;10.60;99.90;;;;;;5115138;28;19924;-85
2021/09/28 00:21:51;;;;;;;;;;;10.60;99.90;;;;;;5115013;28;19934;-85
2021/09/28 00:24:21;;;;;;;;;;;10.60;99.90;;;;;;5115208;28;19923;-85
2021/09/28 00:26:49;;;;;;;;;;;10.60;99.90;;;;;;5115076;28;19924;-86
2021/09/28 00:29:17;;;;;;;;;;;10.60;99.90;;;;;;5115123;28;19923;-86
2021/09/28 00:31:46;;;;;;;;;;;10.50;99.90;;;;;;5114925;28;20248;-85
2021/09/28 00:34:14;;;;;;;;;;;10.50;99.90;;;;;;5115072;28;19930;-86
2021/09/28 00:36:41;;;;;;;;;;;10.50;99.90;;;;;;5115092;28;19924;-86
2021/09/28 00:39:07;;;;;;;;;;;10.50;99.90;;;;;;5117586;28;20032;-86
2021/09/28 00:41:36;;;;;;;;;;;10.50;99.90;;;;;;5118890;28;19924;-86
2021/09/28 00:44:03;;;;;;;;;;;10.50;99.90;;;;;;5118834;28;19924;-86
2021/09/28 00:46:30;;;;;;;;;;;10.50;99.90;;;;;;5118564;28;19927;-86
2021/09/28 00:48:56;;;;;;;;;;;10.50;99.90;;;;;;5118295;28;19930;-86
2021/09/28 00:51:23;;;;;;;;;;;10.50;99.90;;;;;;5118064;28;20278;-86
2021/09/28 00:53:51;;;;;;;;;;;10.50;99.90;;;;;;5118338;28;19924;-85
2021/09/28 00:56:18;;;;;;;;;;;10.50;99.90;;;;;;5118677;28;19931;-86
2021/09/28 00:58:47;;;;;;;;;;;10.60;99.90;;;;;;5118628;28;20023;-86
2021/09/28 01:01:14;;;;;;;;;;;10.60;99.90;;;;;;5118427;28;19923;-86
2021/09/28 01:03:40;;;;;;;;;;;10.60;99.90;;;;;;5118503;28;19923;-86
2021/09/28 01:06:07;;;;;;;;;;;10.60;99.90;;;;;;5118318;28;20094;-86
2021/09/28 01:08:34;;;;;;;;;;;10.50;99.90;;;;;;5118416;28;20373;-86
2021/09/28 01:11:03;;;;;;;;;;;10.60;99.90;;;;;;5118205;28;19934;-86
2021/09/28 01:13:29;;;;;;;;;;;10.60;99.90;;;;;;5118040;28;19971;-86
2021/09/28 01:16:09;;;;;;;;;;;10.60;99.90;;;;;;5117926;28;19923;-86
2021/09/28 01:18:36;;;;;;;;;;;10.60;99.90;;;;;;5118094;28;19924;-85
2021/09/28 01:21:05;;;;;;;;;;;10.60;99.90;;;;;;5117990;28;20022;-86
2021/09/28 01:23:32;;;;;;;;;;;10.60;99.90;;;;;;5117888;28;19949;-85
2021/09/28 01:25:59;;;;;;;;;;;10.50;99.90;;;;;;5117908;28;19924;-86
2021/09/28 01:28:25;;;;;;;;;;;10.50;99.90;;;;;;5117845;28;19924;-86
2021/09/28 01:30:52;;;;;;;;;;;10.50;99.90;;;;;;5117488;28;19924;-86
2021/09/28 01:33:19;;;;;;;;;;;10.50;99.90;;;;;;5117782;28;19938;-86
2021/09/28 01:35:46;;;;;;;;;;;10.50;99.90;;;;;;5117790;28;19938;-86
2021/09/28 01:38:14;;;;;;;;;;;10.50;99.90;;;;;;5117827;28;19934;-86
2021/09/28 01:40:41;;;;;;;;;;;10.50;99.90;;;;;;5117605;28;20263;-86
2021/09/28 01:43:08;;;;;;;;;;;10.40;99.90;;;;;;5117640;27;19934;-86
2021/09/28 01:45:35;;;;;;;;;;;10.50;99.90;;;;;;5117504;28;19925;-86
2021/09/28 01:48:02;;;;;;;;;;;10.50;99.90;;;;;;5117356;28;19923;-86
2021/09/28 01:50:29;;;;;;;;;;;10.50;99.90;;;;;;5117656;28;19934;-86
2021/09/28 01:52:56;;;;;;;;;;;10.50;99.90;;;;;;5117317;28;20358;-86
2021/09/28 01:55:24;;;;;;;;;;;10.50;99.90;;;;;;5117210;28;20348;-86
2021/09/28 01:57:55;;;;;;;;;;;10.60;99.90;;;;;;5117086;28;20282;-86
2021/09/28 02:00:22;;;;;;;;;;;10.50;99.90;;;;;;5117340;28;19924;-85
2021/09/28 02:02:49;;;;;;;;;;;10.60;99.90;;;;;;5116984;28;19950;-86
2021/09/28 02:05:16;;;;;;;;;;;10.60;99.90;;;;;;5117377;28;19924;-86
2021/09/28 02:07:43;;;;;;;;;;;10.50;99.90;;;;;;5117040;28;19924;-86
2021/09/28 02:10:11;;;;;;;;;;;10.50;99.90;;;;;;5117120;28;19923;-86
2021/09/28 02:12:39;;;;;;;;;;;10.50;99.90;;;;;;5116926;28;19928;-86
2021/09/28 02:15:06;;;;;;;;;;;10.50;99.90;;;;;;5116702;28;19935;-86
2021/09/28 02:17:33;;;;;;;;;;;10.40;99.90;;;;;;5116752;28;19934;-86
2021/09/28 02:20:00;;;;;;;;;;;10.40;99.90;;;;;;5116756;27;19923;-86
2021/09/28 02:22:27;;;;;;;;;;;10.50;99.90;;;;;;5116983;28;19934;-86
2021/09/28 02:24:54;;;;;;;;;;;10.40;99.90;;;;;;5116851;28;19923;-86
2021/09/28 02:27:21;;;;;;;;;;;10.50;99.90;;;;;;5116601;28;19928;-86
2021/09/28 02:29:49;;;;;;;;;;;10.40;99.90;;;;;;5116627;28;19934;-86
2021/09/28 02:32:16;;;;;;;;;;;10.40;99.90;;;;;;5116491;28;19930;-86
2021/09/28 02:34:43;;;;;;;;;;;10.40;99.90;;;;;;5116845;28;19924;-86
2021/09/28 02:37:11;;;;;;;;;;;10.40;99.90;;;;;;5116373;28;20366;-86
2021/09/28 02:39:40;;;;;;;;;;;10.40;99.90;;;;;;5116376;28;19924;-85
2021/09/28 02:42:06;;;;;;;;;;;10.40;99.90;;;;;;5116357;28;20027;-86
2021/09/28 02:44:33;;;;;;;;;;;10.40;99.90;;;;;;5116302;28;19923;-86
2021/09/28 02:47:02;;;;;;;;;;;10.40;99.90;;;;;;5116389;28;19924;-85
2021/09/28 02:49:28;;;;;;;;;;;10.40;99.90;;;;;;5116115;28;19996;-85
2021/09/28 02:51:55;;;;;;;;;;;10.30;99.90;;;;;;5116200;28;19923;-86
2021/09/28 02:54:22;;;;;;;;;;;10.30;99.90;;;;;;5116018;28;19928;-85
2021/09/28 02:56:49;;;;;;;;;;;10.30;99.90;;;;;;5116035;28;19923;-85
2021/09/28 02:59:16;;;;;;;;;;;10.30;99.90;;;;;;5115954;28;19924;-85
2021/09/28 03:01:43;;;;;;;;;;;10.30;99.90;;;;;;5115887;28;19942;-86
2021/09/28 03:04:11;;;;;;;;;;;10.30;99.90;;;;;;5116207;28;19930;-86
2021/09/28 03:06:38;;;;;;;;;;;10.40;99.90;;;;;;5115991;28;19934;-85
2021/09/28 03:09:05;;;;;;;;;;;10.40;99.90;;;;;;5115887;28;19934;-86
2021/09/28 03:11:32;;;;;;;;;;;10.30;99.90;;;;;;5115941;28;19963;-86
2021/09/28 03:14:00;;;;;;;;;;;10.30;99.90;;;;;;5115845;28;19923;-86
2021/09/28 03:16:27;;;;;;;;;;;10.30;99.90;;;;;;5115864;28;19924;-86
2021/09/28 03:18:54;;;;;;;;;;;10.30;99.90;;;;;;5115972;28;19924;-86
2021/09/28 03:21:22;;;;;;;;;;;10.30;99.90;;;;;;5116021;28;19935;-86
2021/09/28 03:23:49;;;;;;;;;;;10.30;99.90;;;;;;5115948;28;19934;-86
2021/09/28 03:26:16;;;;;;;;;;;10.40;99.90;;;;;;5115774;28;19924;-87
2021/09/28 03:28:42;;;;;;;;;;;10.40;99.90;;;;;;5115573;28;20267;-85
2021/09/28 03:31:09;;;;;;;;;;;10.40;99.90;;;;;;5115605;28;19924;-85
2021/09/28 03:33:36;;;;;;;;;;;10.40;99.90;;;;;;5115677;28;19930;-86
2021/09/28 03:36:03;;;;;;;;;;;10.40;99.90;;;;;;5115507;28;19924;-86
2021/09/28 03:38:31;;;;;;;;;;;10.40;99.90;;;;;;5115600;28;19924;-85
2021/09/28 03:40:58;;;;;;;;;;;10.40;99.90;;;;;;5115418;28;19923;-86
2021/09/28 03:43:26;;;;;;;;;;;10.50;99.90;;;;;;5115393;28;20343;-86
2021/09/28 03:45:53;;;;;;;;;;;10.50;99.90;;;;;;5115460;28;20344;-86
2021/09/28 03:48:20;;;;;;;;;;;10.50;99.90;;;;;;5115461;28;19924;-85
2021/09/28 03:50:47;;;;;;;;;;;10.50;99.90;;;;;;5115532;28;19928;-86
2021/09/28 03:53:14;;;;;;;;;;;10.50;99.90;;;;;;5115548;28;19924;-86
2021/09/28 03:55:42;;;;;;;;;;;10.50;99.90;;;;;;5115323;28;19924;-85
2021/09/28 03:58:11;;;;;;;;;;;10.50;99.90;;;;;;5115446;28;19934;-86
2021/09/28 04:00:39;;;;;;;;;;;10.50;99.90;;;;;;5115493;28;19967;-86
2021/09/28 04:03:06;;;;;;;;;;;10.50;99.90;;;;;;5115409;28;19997;-85
2021/09/28 04:05:32;;;;;;;;;;;10.50;99.90;;;;;;5115670;28;19928;-86
2021/09/28 04:07:59;;;;;;;;;;;10.50;99.90;;;;;;5115509;28;19934;-84
2021/09/28 04:10:26;;;;;;;;;;;10.50;99.90;;;;;;5115212;28;19923;-86
2021/09/28 04:12:54;;;;;;;;;;;10.40;99.90;;;;;;5115975;28;19924;-86
2021/09/28 04:15:24;;;;;;;;;;;10.50;99.90;;;;;;5119318;28;19930;-86
2021/09/28 04:17:51;;;;;;;;;;;10.50;99.90;;;;;;5119171;28;19974;-86
2021/09/28 04:20:18;;;;;;;;;;;10.50;99.90;;;;;;5119142;27;19924;-86
2021/09/28 04:22:45;;;;;;;;;;;10.50;99.90;;;;;;5119092;28;19924;-86
2021/09/28 04:25:13;;;;;;;;;;;10.50;99.90;;;;;;5119053;28;19941;-86
2021/09/28 04:27:40;;;;;;;;;;;10.60;99.90;;;;;;5119210;28;19934;-86
2021/09/28 04:30:09;;;;;;;;;;;10.60;99.90;;;;;;5118973;28;19939;-86
2021/09/28 04:32:36;;;;;;;;;;;10.60;99.90;;;;;;5118799;28;19930;-86
2021/09/28 04:35:02;;;;;;;;;;;10.60;99.90;;;;;;5118823;28;19924;-86
2021/09/28 04:37:29;;;;;;;;;;;10.60;99.90;;;;;;5118744;28;20002;-86
2021/09/28 04:39:56;;;;;;;;;;;10.50;99.90;;;;;;5119033;28;20259;-86
2021/09/28 04:42:23;;;;;;;;;;;10.50;99.90;;;;;;5118681;28;20386;-86
2021/09/28 04:44:50;;;;;;;;;;;10.50;99.90;;;;;;5119023;28;20243;-86
2021/09/28 04:47:18;;;;;;;;;;;10.50;99.90;;;;;;5118644;28;20264;-86
2021/09/28 04:49:45;;;;;;;;;;;10.50;99.90;;;;;;5118526;28;19924;-86
2021/09/28 04:52:12;;;;;;;;;;;10.50;99.90;;;;;;5118509;28;19924;-86
2021/09/28 04:54:39;;;;;;;;;;;10.50;99.90;;;;;;5118706;28;20358;-86
2021/09/28 04:57:06;;;;;;;;;;;10.50;99.90;;;;;;5118370;28;19924;-86
2021/09/28 04:59:33;;;;;;;;;;;10.50;99.90;;;;;;5118394;27;20364;-86
2021/09/28 05:02:00;;;;;;;;;;;10.50;99.90;;;;;;5118322;28;19923;-86
2021/09/28 05:04:28;;;;;;;;;;;10.50;99.90;;;;;;5118849;28;19924;-86
2021/09/28 05:06:55;;;;;;;;;;;10.50;99.90;;;;;;5118192;28;19934;-86
2021/09/28 05:09:22;;;;;;;;;;;10.50;99.90;;;;;;5118306;28;19934;-86
2021/09/28 05:11:49;;;;;;;;;;;10.50;99.90;;;;;;5118106;28;19934;-86
2021/09/28 05:14:15;;;;;;;;;;;10.40;99.90;;;;;;5118271;28;19923;-86
2021/09/28 05:16:43;;;;;;;;;;;10.50;99.90;;;;;;5118064;28;19924;-86
2021/09/28 05:19:09;;;;;;;;;;;10.50;99.90;;;;;;5118099;28;20359;-86
2021/09/28 05:21:38;;;;;;;;;;;10.50;99.90;;;;;;5118211;28;19924;-86
2021/09/28 05:24:05;;;;;;;;;;;10.50;99.90;;;;;;5117716;28;19930;-86
2021/09/28 05:26:32;;;;;;;;;;;10.60;99.90;;;;;;5118065;28;19946;-86
2021/09/28 05:28:58;;;;;;;;;;;10.60;99.90;;;;;;5117842;28;19946;-86
2021/09/28 05:31:25;;;;;;;;;;;10.60;99.90;;;;;;5117663;28;19946;-86
2021/09/28 05:33:52;;;;;;;;;;;10.60;99.90;;;;;;5117812;28;19934;-86
2021/09/28 05:36:19;;;;;;;;;;;10.60;99.90;;;;;;5117689;28;19924;-86
2021/09/28 05:38:47;;;;;;;;;;;10.70;99.90;;;;;;5117848;28;19950;-86
2021/09/28 05:41:14;;;;;;;;;;;10.70;99.90;;;;;;5117817;28;19938;-86
2021/09/28 05:43:41;;;;;;;;;;;10.70;99.90;;;;;;5117509;28;19924;-86
2021/09/28 05:46:08;;;;;;;;;;;10.70;99.90;;;;;;5117409;28;19930;-86
2021/09/28 05:48:35;;;;;;;;;;;10.70;99.90;;;;;;5117369;28;19924;-86
2021/09/28 05:51:02;;;;;;;;;;;10.80;99.90;;;;;;5117547;28;19924;-86
2021/09/28 05:53:36;;;;;;;;;;;10.80;99.90;;;;;;5117505;28;20359;-86
2021/09/28 05:56:04;;;;;;;;;;;10.80;99.90;;;;;;5117200;28;19932;-86
2021/09/28 05:58:31;;;;;;;;;;;10.80;99.90;;;;;;5117185;28;19923;-85
2021/09/28 06:00:58;;;;;;;;;;;10.80;99.90;;;;;;5117132;28;19924;-86
2021/09/28 06:03:25;;;;;;;;;;;10.80;99.90;;;;;;5117133;28;19938;-86
2021/09/28 06:05:51;;;;;;;;;;;10.90;99.90;;;;;;5117051;28;19924;-85
2021/09/28 06:08:18;;;;;;;;;;;10.90;99.90;;;;;;5117138;28;19923;-85
2021/09/28 06:10:45;;;;;;;;;;;10.90;99.90;;;;;;5117153;28;19924;-86
2021/09/28 06:13:14;;;;;;;;;;;10.90;99.90;;;;;;5116978;28;20241;-86
2021/09/28 06:15:41;;;;;;;;;;;10.90;99.90;;;;;;5116843;28;19923;-86
2021/09/28 06:18:08;;;;;;;;;;;10.90;99.90;;;;;;5117024;28;20257;-86
2021/09/28 06:20:35;;;;;;;;;;;10.90;99.90;;;;;;5116969;28;19924;-85
2021/09/28 06:23:02;;;;;;;;;;;10.90;99.90;;;;;;5116633;28;20255;-86
2021/09/28 06:25:29;;;;;;;;;;;10.90;99.90;;;;;;5116757;28;19930;-85
2021/09/28 06:27:56;;;;;;;;;;;10.90;99.90;;;;;;5116591;28;19924;-87
2021/09/28 06:30:24;;;;;;;;;;;10.90;99.90;;;;;;5116518;28;19997;-85
2021/09/28 06:32:51;;;;;;;;;;;10.80;99.90;;;;;;5116233;28;20413;-85
2021/09/28 06:35:19;;;;;;;;;;;10.80;99.90;;;;;;5116094;28;19934;-85
2021/09/28 06:37:46;;;;;;;;;;;10.80;99.90;;;;;;5116345;28;19984;-86
2021/09/28 06:40:13;;;;;;;;;;;10.80;99.90;;;;;;5116377;28;19930;-84
2021/09/28 06:42:40;;;;;;;;;;;10.80;99.90;;;;;;5116289;28;19924;-86
2021/09/28 06:45:07;;;;;;;;;;;10.80;99.90;;;;;;5116136;28;20013;-85
2021/09/28 06:47:35;;;;;;;;;;;10.80;99.90;;;;;;5116254;28;20015;-84
2021/09/28 06:50:02;;;;;;;;;;;10.80;99.90;;;;;;5116204;28;19938;-86
2021/09/28 06:52:28;;;;;;;;;;;10.80;99.90;;;;;;5116186;28;19930;-85
2021/09/28 06:54:55;;;;;;;;;;;10.90;99.90;;;;;;5116013;28;19938;-85
2021/09/28 06:57:22;;;;;;;;;;;10.90;99.90;;;;;;5115943;28;19923;-85
2021/09/28 06:59:49;;;;;;;;;;;10.90;99.90;;;;;;5115969;28;19924;-86
2021/09/28 07:02:16;;;;;;;;;;;10.90;99.90;;;;;;5116099;28;19934;-84
2021/09/28 07:04:44;;;;;;;;;;;10.90;99.90;;;;;;5116247;28;19930;-85
2021/09/28 07:07:11;;;;;;;;;;;10.90;99.90;;;;;;5116014;28;19924;-86
2021/09/28 07:09:38;;;;;;;;;;;10.90;99.90;;;;;;5115903;28;19934;-85
2021/09/28 07:12:05;;;;;;;;;;;10.90;99.90;;;;;;5115878;28;19927;-86
2021/09/28 07:14:32;;;;;;;;;;;10.90;99.90;;;;;;5115829;28;19930;-84
2021/09/28 07:16:59;;;;;;;;;;;10.90;99.90;;;;;;5115689;28;19924;-86
2021/09/28 07:19:26;;;;;;;;;;;10.90;99.90;;;;;;5115659;28;19924;-85
2021/09/28 07:21:54;;;;;;;;;;;11.00;99.90;;;;;;5115729;28;20001;-85
2021/09/28 07:24:21;;;;;;;;;;;11.00;99.90;;;;;;5115737;28;19923;-86
2021/09/28 07:26:48;;;;;;;;;;;11.10;99.90;;;;;;5115563;28;19924;-85
2021/09/28 07:29:14;;;;;;;;;;;11.10;99.90;;;;;;5115673;28;19934;-86
2021/09/28 07:31:41;;;;;;;;;;;11.10;99.90;;;;;;5115595;28;19924;-84
2021/09/28 07:34:09;;;;;;;;;;;11.20;99.90;;;;;;5115733;28;19924;-85
2021/09/28 07:36:36;;;;;;;;;;;11.20;99.90;;;;;;5115373;28;20352;-85
2021/09/28 07:39:04;;;;;;;;;;;11.20;99.90;;;;;;5115522;28;19924;-86
2021/09/28 07:41:31;;;;;;;;;;;11.20;99.90;;;;;;5115392;28;20263;-86
2021/09/28 07:43:58;;;;;;;;;;;11.20;99.90;;;;;;5115503;28;20354;-86
2021/09/28 07:46:25;;;;;;;;;;;11.20;99.90;;;;;;5115607;28;19928;-86
2021/09/28 07:48:51;;;;;;;;;;;11.20;99.90;;;;;;5119779;28;19930;-85
2021/09/28 07:51:18;;;;;;;;;;;11.20;99.90;;;;;;5119972;28;19934;-85
2021/09/28 07:53:49;;;;;;;;;;;11.20;99.90;;;;;;5119622;28;20275;-85
2021/09/28 07:56:18;;;;;;;;;;;11.30;99.90;;;;;;5119482;28;19924;-85
2021/09/28 07:58:45;;;;;;;;;;;11.30;99.90;;;;;;5119674;28;20309;-84
2021/09/28 08:01:12;;;;;;;;;;;11.40;99.90;;;;;;5119447;28;20352;-85
2021/09/28 08:03:39;;;;;;;;;;;11.40;99.90;;;;;;5119643;28;19923;-84
2021/09/28 08:06:05;;;;;;;;;;;11.50;99.90;;;;;;5119478;27;19923;-81
2021/09/28 08:08:32;;;;;;;;;;;11.50;99.90;;;;;;5119175;28;20377;-81
2021/09/28 08:10:59;;;;;;;;;;;11.50;99.90;;;;;;5119211;28;20336;-81
2021/09/28 08:13:27;;;;;;;;;;;11.50;99.90;;;;;;5119198;28;19934;-82
2021/09/28 08:15:55;;;;;;;;;;;11.50;99.90;;;;;;5119634;28;19934;-81
2021/09/28 08:18:22;;;;;;;;;;;11.50;99.90;;;;;;5119019;28;20016;-82
2021/09/28 08:20:49;;;;;;;;;;;11.50;99.90;;;;;;5119099;28;19934;-80
2021/09/28 08:23:17;;;;;;;;;;;11.50;99.90;;;;;;5118998;28;20286;-81
2021/09/28 08:25:59;;;;;;;;;;;11.50;99.90;;;;;;5119042;28;19924;-81
2021/09/28 08:31:11;;;;;;;;;;;11.50;99.90;;;;;;5118815;28;19930;-80
2021/09/28 08:33:38;;;;;;;;;;;11.60;99.90;;;;;;5118991;28;20354;-79
2021/09/28 08:36:05;;;;;;;;;;;11.60;99.90;;;;;;5118985;28;19950;-79
2021/09/28 08:38:32;;;;;;;;;;;11.70;99.90;;;;;;5118815;28;19924;-79
2021/09/28 08:40:59;;;;;;;;;;;11.80;99.90;;;;;;5118651;28;20014;-79
2021/09/28 08:43:26;;;;;;;;;;;11.90;99.90;;;;;;5118742;28;19924;-79
2021/09/28 08:45:53;;;;;;;;;;;11.90;99.90;;;;;;5118503;28;19924;-79
2021/09/28 08:48:22;;;;;;;;;;;12.00;99.90;;;;;;5118514;28;19989;-80
2021/09/28 08:50:49;;;;;;;;;;;12.10;99.90;;;;;;5118560;28;19935;-79
2021/09/28 08:53:16;;;;;;;;;;;12.10;99.90;;;;;;5118734;28;19977;-81
2021/09/28 08:55:43;;;;;;;;;;;12.10;99.90;;;;;;5118600;28;19923;-79
2021/09/28 08:58:13;;;;;;;;;;;12.10;99.90;;;;;;5118096;28;19950;-79
2021/09/28 09:00:40;;;;;;;;;;;12.10;99.90;;;;;;5117992;28;19923;-80
2021/09/28 09:03:07;;;;;;;;;;;12.10;99.90;;;;;;5118129;28;19938;-79
2021/09/28 09:05:35;;;;;;;;;;;12.20;99.90;;;;;;5118441;28;19934;-80
2021/09/28 09:08:04;;;;;;;;;;;12.20;99.90;;;;;;5118041;28;19924;-79
2021/09/28 09:10:31;;;;;;;;;;;12.20;99.90;;;;;;5118197;28;20321;-79
2021/09/28 09:12:58;;;;;;;;;;;12.20;99.90;;;;;;5118041;28;20359;-80
2021/09/28 09:15:26;;;;;;;;;;;12.30;99.90;;;;;;5118029;28;19928;-79
2021/09/28 09:17:53;;;;;;;;;;;12.30;99.90;;;;;;5118124;28;19924;-80
2021/09/28 09:20:24;;;;;;;;;;;12.40;99.90;;;;;;5118148;28;19973;-79
2021/09/28 09:22:55;;;;;;;;;;;12.40;99.90;;;;;;5117829;28;19934;-80
2021/09/28 09:25:25;;;;;;;;;;;12.40;99.90;;;;;;5118160;28;19923;-80
2021/09/28 09:27:53;;;;;;;;;;;12.50;99.90;;;;;;5117787;28;19924;-80
2021/09/28 09:30:26;;;;;;;;;;;12.50;99.90;;;;;;5117736;28;20269;-80
2021/09/28 09:32:55;;;;;;;;;;;12.50;99.90;;;;;;5117499;28;19923;-80
2021/09/28 09:35:26;;;;;;;;;;;12.60;99.90;;;;;;5117848;27;19989;-80
2021/09/28 09:38:04;;;;;;;;;;;12.60;99.90;;;;;;5117632;28;19924;-80
2021/09/28 09:40:32;;;;;;;;;;;12.60;99.90;;;;;;5117529;28;19932;-80
2021/09/28 09:43:00;;;;;;;;;;;12.70;99.90;;;;;;5117563;28;19934;-80
2021/09/28 09:45:27;;;;;;;;;;;12.60;99.90;;;;;;5117568;27;19923;-80
2021/09/28 09:47:55;;;;;;;;;;;12.70;99.90;;;;;;5117367;28;19924;-79
2021/09/28 09:50:23;;;;;;;;;;;12.80;99.90;;;;;;5117466;28;19928;-81
2021/09/28 09:53:08;;;;;;;;;;;12.80;99.90;;;;;;5117276;28;19924;-80
2021/09/28 09:55:40;;;;;;;;;;;12.80;99.90;;;;;;5117594;28;19932;-79
2021/09/28 09:58:08;;;;;;;;;;;12.90;99.90;;;;;;5117323;28;19928;-79
2021/09/28 10:00:43;;;;;;;;;;;13.00;99.90;;;;;;5117354;28;19985;-80
2021/09/28 10:03:11;;;;;;;;;;;13.00;99.90;;;;;;5117207;28;19923;-80
2021/09/28 10:05:41;;;;;;;;;;;13.10;99.90;;;;;;5117011;28;19924;-79
2021/09/28 10:08:12;;;;;;;;;;;13.20;99.90;;;;;;5117259;28;20415;-79
2021/09/28 10:10:42;;;;;;;;;;;13.20;99.90;;;;;;5115902;28;20056;-79
2021/09/28 10:13:25;;;;;;;;;;;13.30;99.90;;;;;;5117008;28;19946;-81
2021/09/28 10:16:11;;;;;;;;;;;13.30;99.90;;;;;;5116708;28;19923;-81
2021/09/28 10:18:42;;;;;;;;;;;13.30;99.90;;;;;;5116664;28;19924;-80
2021/09/28 10:21:30;;;;;;;;;;;13.20;99.90;;;;;;5116821;28;19930;-80
2021/09/28 10:24:18;;;;;;;;;;;13.20;99.90;;;;;;5116510;28;20314;-80
2021/09/28 10:26:51;;;;;;;;;;;13.20;99.90;;;;;;5116676;28;19927;-79
2021/09/28 10:29:42;;;;;;;;;;;13.30;99.90;;;;;;5116721;28;19924;-82
2021/09/28 10:32:34;;;;;;;;;;;13.30;99.90;;;;;;5112271;27;20401;-82
2021/09/28 10:35:11;;;;;;;;;;;13.40;99.90;;;;;;5116328;28;19923;-83
2021/09/28 10:38:00;;;;;;;;;;;13.50;99.90;;;;;;5116431;28;19924;-84
2021/09/28 10:40:46;;;;;;;;;;;13.60;99.90;;;;;;5116372;28;20337;-83
2021/09/28 10:43:29;;;;;;;;;;;13.70;99.90;;;;;;5116338;28;19924;-82
2021/09/28 10:46:00;;;;;;;;;;;13.80;99.90;;;;;;5116510;28;19934;-83
2021/09/28 10:48:43;;;;;;;;;;;13.90;99.90;;;;;;5116279;28;20374;-83
2021/09/28 10:51:12;;;;;;;;;;;13.90;99.90;;;;;;5116298;28;20241;-83
2021/09/28 10:53:40;;;;;;;;;;;14.00;99.90;;;;;;5115892;28;20291;-84
2021/09/28 10:56:08;;;;;;;;;;;14.00;99.90;;;;;;5113482;28;19927;-83
2021/09/28 10:58:52;;;;;;;;;;;14.00;99.90;;;;;;5116154;28;19924;-83
2021/09/28 11:01:22;;;;;;;;;;;14.00;99.90;;;;;;5114896;28;20366;-83
2021/09/28 11:03:58;;;;;;;;;;;13.90;99.90;;;;;;5116085;28;19977;-85
2021/09/28 11:06:49;;;;;;;;;;;13.90;99.90;;;;;;5115945;28;19978;-84
2021/09/28 11:09:18;;;;;;;;;;;13.90;99.90;;;;;;5116218;28;19924;-84
2021/09/28 11:11:49;;;;;;;;;;;13.90;99.90;;;;;;5115987;28;19924;-83
2021/09/28 11:14:17;;;;;;;;;;;14.00;99.90;;;;;;5116168;28;19934;-82
2021/09/28 11:16:48;;;;;;;;;;;14.00;99.90;;;;;;5115860;28;19980;-83
2021/09/28 11:19:15;;;;;;;;;;;14.00;99.90;;;;;;5115713;28;19931;-84
2021/09/28 11:21:45;;;;;;;;;;;14.00;99.90;;;;;;5115498;28;19934;-83
2021/09/28 11:24:14;;;;;;;;;;;14.00;99.90;;;;;;5115778;28;19935;-83
2021/09/28 11:26:43;;;;;;;;;;;14.10;99.90;;;;;;5115742;28;19924;-84
2021/09/28 11:29:11;;;;;;;;;;;14.10;99.90;;;;;;5115544;28;20358;-84
2021/09/28 11:31:39;;;;;;;;;;;14.20;99.90;;;;;;5115368;28;20229;-84
2021/09/28 11:34:10;;;;;;;;;;;14.20;99.90;;;;;;5114906;28;21259;-83
2021/09/28 11:36:39;;;;;;;;;;;14.20;99.90;;;;;;5115748;28;19931;-84
2021/09/28 11:39:06;;;;;;;;;;;14.20;99.90;;;;;;5115236;28;19924;-83
2021/09/28 11:41:35;;;;;;;;;;;14.30;99.90;;;;;;5114473;28;19930;-84
2021/09/28 11:44:01;;;;;;;;;;;14.40;99.90;;;;;;5115170;28;19923;-85
2021/09/28 11:46:29;;;;;;;;;;;14.40;99.90;;;;;;5113570;28;19946;-84
2021/09/28 11:48:58;;;;;;;;;;;14.50;99.90;;;;;;5115238;28;19924;-83
2021/09/28 11:51:27;;;;;;;;;;;14.40;99.90;;;;;;5115528;28;19924;-82
2021/09/28 11:53:54;;;;;;;;;;;14.40;99.90;;;;;;5115600;28;19924;-84
2021/09/28 11:56:21;;;;;;;;;;;14.40;99.90;;;;;;5115371;28;19924;-84
2021/09/28 11:58:48;;;;;;;;;;;14.40;99.90;;;;;;5115255;28;20340;-85
2021/09/28 12:01:17;;;;;;;;;;;14.40;99.90;;;;;;5115264;28;19924;-84
2021/09/28 12:04:07;;;;;;;;;;;14.40;99.90;;;;;;5115443;28;19955;-85
2021/09/28 12:06:46;;;;;;;;;;;14.40;99.90;;;;;;5115390;28;19982;-85
2021/09/28 12:09:16;;;;;;;;;;;14.40;99.90;;;;;;5115249;28;19923;-84
2021/09/28 12:12:01;;;;;;;;;;;14.40;99.90;;;;;;5115487;28;19946;-84
2021/09/28 12:14:32;;;;;;;;;;;14.40;99.90;;;;;;5115230;28;20351;-84
2021/09/28 12:17:08;;;;;;;;;;;14.40;99.90;;;;;;5111880;28;19924;-82
2021/09/28 12:19:36;;;;;;;;;;;14.40;99.90;;;;;;5114606;28;19924;-84
2021/09/28 12:22:06;;;;;;;;;;;14.40;99.90;;;;;;5115189;28;19923;-83
2021/09/28 12:24:46;;;;;;;;;;;14.40;99.90;;;;;;5115053;28;19930;-82
2021/09/28 12:27:13;;;;;;;;;;;14.40;99.90;;;;;;5115220;28;20248;-82
2021/09/28 12:29:40;;;;;;;;;;;14.30;99.90;;;;;;5114994;28;20362;-83
2021/09/28 12:32:07;;;;;;;;;;;14.30;99.90;;;;;;5114780;28;19927;-83
2021/09/28 12:34:47;;;;;;;;;;;14.30;99.90;;;;;;5116834;28;20400;-83
2021/09/28 12:37:15;;;;;;;;;;;14.20;99.90;;;;;;5119006;28;19924;-83
2021/09/28 12:39:42;;;;;;;;;;;14.20;99.90;;;;;;5118599;28;19935;-83
2021/09/28 12:42:09;;;;;;;;;;;14.20;99.90;;;;;;5118578;28;19923;-83
2021/09/28 12:44:36;;;;;;;;;;;14.20;99.90;;;;;;5118674;28;19924;-84
2021/09/28 12:47:22;;;;;;;;;;;14.10;99.90;;;;;;5128390;27;20336;-83
2021/09/28 12:49:49;;;;;;;;;;;14.00;99.90;;;;;;5139066;27;19934;-81
2021/09/28 12:52:17;;;;;;;;;;;13.80;99.90;;;;;;5138804;27;20276;-78
2021/09/28 12:54:44;;;;;;;;;;;13.70;99.90;;;;;;5139103;27;19930;-78
2021/09/28 12:57:11;;;;;;;;;;;13.60;99.90;;;;;;5139100;27;19930;-78
2021/09/28 12:59:37;;;;;;;;;;;13.50;99.90;;;;;;5139141;27;19938;-77
2021/09/28 13:02:04;;;;;;;;;;;13.40;99.90;;;;;;5138992;27;19972;-80
2021/09/28 13:04:31;;;;;;;;;;;13.40;99.90;;;;;;5139012;27;19930;-79
2021/09/28 13:06:59;;;;;;;;;;;13.30;99.90;;;;;;5139177;27;19923;-82
2021/09/28 13:09:27;;;;;;;;;;;13.30;99.90;;;;;;5139025;27;19923;-80
2021/09/28 13:11:54;;;;;;;;;;;13.30;99.90;;;;;;5138679;27;19933;-82
2021/09/28 13:14:21;;;;;;;;;;;13.20;99.90;;;;;;5138923;27;19930;-83
2021/09/28 13:16:47;;;;;;;;;;;13.20;99.90;;;;;;5138708;27;19928;-84
2021/09/28 13:19:14;;;;;;;;;;;13.20;99.90;;;;;;5138631;27;20240;-85
2021/09/28 13:21:41;;;;;;;;;;;13.20;99.90;;;;;;5138486;27;20365;-87
2021/09/28 13:24:10;;;;;;;;;;;13.20;99.90;;;;;;5127986;27;19924;-85
2021/09/28 13:26:38;;;;;;;;;;;13.20;99.90;;;;;;5118010;28;19927;-85
2021/09/28 13:29:07;;;;;;;;;;;13.10;99.90;;;;;;5117994;28;19985;-86
2021/09/28 13:31:35;;;;;;;;;;;13.20;99.90;;;;;;5117585;28;19945;-86
2021/09/28 13:34:03;;;;;;;;;;;13.10;99.90;;;;;;5117897;28;19923;-85
2021/09/28 13:36:33;;;;;;;;;;;13.10;99.90;;;;;;5117784;28;19988;-84
2021/09/28 13:39:04;;;;;;;;;;;13.10;99.90;;;;;;5117321;28;19942;-84
2021/09/28 13:41:32;;;;;;;;;;;13.20;99.90;;;;;;5117569;28;19931;-85
2021/09/28 13:44:04;;;;;;;;;;;13.20;99.90;;;;;;5117299;28;20348;-85
2021/09/28 13:46:31;;;;;;;;;;;13.10;99.90;;;;;;5117267;28;19924;-85
2021/09/28 13:49:00;;;;;;;;;;;13.10;99.90;;;;;;5117419;28;19923;-83
2021/09/28 13:51:28;;;;;;;;;;;13.20;99.90;;;;;;5117451;28;19924;-84
2021/09/28 13:53:58;;;;;;;;;;;13.10;99.90;;;;;;5116721;28;20366;-85
2021/09/28 13:56:26;;;;;;;;;;;13.10;99.90;;;;;;5116510;28;20033;-85
2021/09/28 13:58:53;;;;;;;;;;;13.10;99.90;;;;;;5117460;28;19924;-85
2021/09/28 14:01:25;;;;;;;;;;;13.10;99.90;;;;;;5117209;28;19934;-86
2021/09/28 14:03:55;;;;;;;;;;;13.00;99.90;;;;;;5117118;27;20248;-86
2021/09/28 14:06:23;;;;;;;;;;;13.10;99.90;;;;;;5117377;28;19934;-86
2021/09/28 14:08:51;;;;;;;;;;;13.00;99.90;;;;;;5117159;28;19938;-86
2021/09/28 14:11:20;;;;;;;;;;;13.00;99.90;;;;;;5116930;28;19924;-85
2021/09/28 14:13:48;;;;;;;;;;;13.00;99.90;;;;;;5116836;28;20252;-86
2021/09/28 14:16:16;;;;;;;;;;;12.90;99.90;;;;;;5116866;28;19930;-85
2021/09/28 14:18:45;;;;;;;;;;;12.90;99.90;;;;;;5116762;28;19923;-83
2021/09/28 14:21:13;;;;;;;;;;;12.90;99.90;;;;;;5116830;28;19924;-85
2021/09/28 14:23:41;;;;;;;;;;;12.90;99.90;;;;;;5116785;28;20352;-85
2021/09/28 14:26:09;;;;;;;;;;;12.90;99.90;;;;;;5116783;28;19924;-84
2021/09/28 14:28:36;;;;;;;;;;;12.80;99.90;;;;;;5116631;28;19930;-84